• Join FlightAware (Why Join?)
  • Login
  • US Flag 
 
12:36PM EST


 

Airport Tracker/Info


-or-


 

Live Flight TrackerFlight Track Log ✈ LXJ541 ✈ 11-Jun-2013 ✈ KSDF - KCRQ

Flight Track Log - Related Links

Times and Time Zones

All times are in EDT time to prevent confusion due to time zone crossing. See the LXJ541 flight status page for this flight to view local times or setup timezone preferences in your user account.

Time Position Orientation Groundspeed Altitude Reporting Facility
EDT Latitude Longitude Course Direction KTS MPH feet Rate Location/Type
04:09PM 38.0678 -85.7967 243° Southwest 263 303 8,700  Level Indianapolis Center
04:10PM 38.0736 -85.8967 274° West 279 321 11,300 2,640 Climbing Indianapolis Center
04:11PM 38.0667 -86.0069 265° West 314 361 14,200 2,700 Climbing Indianapolis Center
04:12PM 38.0614 -86.1278 267° West 338 389 17,000 2,700 Climbing Indianapolis Center
04:13PM 37.9994 -86.8568 264° West  Level FlightAware Approximate
04:13PM 38.0528 -86.2531 265° West 353 406 19,800  Level Indianapolis Center
04:14PM 38.0431 -86.3822 265° West 364 419 22,500 2,220 Climbing Indianapolis Center
04:15PM 38.0317 -86.5178 264° West 379 436 24,400 2,160 Climbing Indianapolis Center
04:16PM 38.0183 -86.6867 264° West 397 457 27,000 2,160 Climbing Indianapolis Center
04:17PM 38.0067 -86.8342 264° West 410 472 28,900 1,980 Climbing Indianapolis Center
04:18PM 37.9939 -86.9850 264° West 422 486 31,200 2,040 Climbing Indianapolis Center
04:19PM 37.9811 -87.1361 264° West 425 489 33,200 1,980 Climbing Indianapolis Center
04:20PM 37.9681 -87.2869 264° West 425 489 35,400 1,800 Climbing Indianapolis Center
04:21PM 37.9556 -87.4347 264° West 420 483 37,000 720 Climbing Indianapolis Center
04:23PM 37.9425 -87.5889 264° West 433 498 37,000  Level Indianapolis Center
04:24PM 37.9294 -87.7442 264° West 441 507 37,000  Level Indianapolis Center
04:25PM 37.9156 -87.9017 264° West 446 513 37,000 480 Level Indianapolis Center
04:26PM 37.8969 -88.0853 263° West 435 501 38,000 1,080 Climbing Indianapolis Center
04:26PM 37.8903 -88.1761 265° West 432 497 38,900 1,020 Climbing Kansas City Center
04:27PM 37.8747 -88.3244 262° West 426 490 39,900 1,020 Climbing Kansas City Center
04:28PM 37.8700 -88.3847 264° West 430 495 40,300 960 Climbing Indianapolis Center
04:28PM 37.8653 -88.4769 266° West 430 495 40,900 960 Climbing Kansas City Center
04:29PM 37.8508 -88.6572 264° West 429 494 42,100 960 Climbing Kansas City Center
04:30PM 37.8425 -88.7819 265° West 426 490 43,000 420 Climbing Kansas City Center
04:32PM 37.8283 -88.9619 264° West 429 494 43,000  Level Kansas City Center
04:33PM 37.8161 -89.1222 265° West 435 501 43,000  Level Kansas City Center
04:34PM 37.8036 -89.2764 264° West 440 506 43,000  Level Kansas City Center
04:35PM 37.7914 -89.4253 264° West 444 511 43,000  Level Kansas City Center
04:36PM 37.7781 -89.5825 264° West 447 514 43,000  Level Kansas City Center
04:37PM 37.7653 -89.7383 264° West 447 514 43,000  Level Kansas City Center
04:38PM 37.7519 -89.8947 264° West 448 516 43,000  Level Kansas City Center
04:39PM 37.7356 -90.0831 264° West 448 516 43,000  Level Kansas City Center
04:40PM 37.7214 -90.2381 263° West 447 514 43,000  Level Kansas City Center
04:41PM 37.7072 -90.3944 264° West 447 514 43,000  Level Kansas City Center
04:42PM 37.6939 -90.5481 264° West 445 512 43,000  Level Kansas City Center
04:43PM 37.6789 -90.7067 263° West 451 519 43,000  Level Kansas City Center
04:44PM 37.6639 -90.8642 263° West 453 521 43,000  Level Kansas City Center
04:45PM 37.6456 -91.0528 263° West 451 519 43,000  Level Kansas City Center
04:46PM 37.6311 -91.2072 263° West 452 520 43,000  Level Kansas City Center
04:47PM 37.6167 -91.3642 263° West 450 518 43,000  Level Kansas City Center
04:48PM 37.6011 -91.5200 263° West 448 516 43,000  Level Kansas City Center
04:49PM 37.5856 -91.6761 263° West 446 513 43,000  Level Kansas City Center
04:50PM 37.5708 -91.8317 263° West 445 512 43,000  Level Kansas City Center
04:51PM 37.5517 -92.0200 263° West 446 513 43,000  Level Kansas City Center
04:52PM 37.5347 -92.1769 262° West 448 516 43,000  Level Kansas City Center
04:53PM 37.5178 -92.3364 262° West 451 519 43,000  Level Kansas City Center
04:54PM 37.5011 -92.4953 263° West 454 522 43,000  Level Kansas City Center
04:55PM 37.4850 -92.6531 263° West 453 521 43,000  Level Kansas City Center
04:56PM 37.4672 -92.8103 262° West 452 520 43,000  Level Kansas City Center
04:57PM 37.4497 -92.9672 262° West 451 519 43,000  Level Kansas City Center
04:58PM 37.4333 -93.1233 263° West 450 518 43,000  Level Kansas City Center
04:59PM 37.4114 -93.3114 262° West 451 519 43,000  Level Kansas City Center
05:00PM 37.3944 -93.4692 262° West 453 521 43,000  Level Kansas City Center
05:01PM 37.3764 -93.6264 262° West 454 522 43,000  Level Kansas City Center
05:03PM 37.3586 -93.7828 262° West 452 520 43,000  Level Kansas City Center
05:04PM 37.3392 -93.9392 261° West 452 520 43,000  Level Kansas City Center
05:05PM 37.3197 -94.1103 262° West 453 521 43,000  Level Kansas City Center
05:06PM 37.3019 -94.2661 262° West 453 521 43,000  Level Kansas City Center
05:07PM 37.2817 -94.4231 261° West 454 522 43,000  Level Kansas City Center
05:08PM 37.2617 -94.5797 261° West 455 524 43,000  Level Kansas City Center
05:09PM 37.2389 -94.7669 261° West 453 521 43,000  Level Kansas City Center
05:10PM 37.2164 -94.9175 259° West 445 512 43,000  Level Kansas City Center
05:11PM 37.1969 -95.0725 261° West 448 516 43,000  Level Kansas City Center
05:12PM 37.1772 -95.2264 261° West 450 518 43,000  Level Kansas City Center
05:13PM 37.1572 -95.3803 261° West 449 517 43,000  Level Kansas City Center
05:14PM 37.1381 -95.5372 261° West 453 521 43,000  Level Kansas City Center
05:15PM 37.1133 -95.7189 260° West 446 513 43,000  Level Kansas City Center
05:16PM 37.0922 -95.8731 260° West 448 516 43,000  Level Kansas City Center
05:17PM 37.0706 -96.0283 260° West 452 520 43,000  Level Kansas City Center
05:18PM 37.0486 -96.1836 260° West 453 521 43,000  Level Kansas City Center
05:19PM 37.0267 -96.3386 260° West 453 521 43,000  Level Kansas City Center
05:20PM 37.0044 -96.4931 260° West 453 521 43,000  Level Kansas City Center
05:21PM 36.9775 -96.6775 260° West 450 518 43,000  Level Kansas City Center
05:22PM 36.9581 -96.8103 260° West 450 518 43,000  Level Kansas City Center
05:23PM 36.9344 -96.9639 259° West 449 517 43,000  Level Kansas City Center
05:24PM 36.9083 -97.1472 260° West 448 516 43,000  Level Kansas City Center
05:25PM 36.8858 -97.2981 259° West 443 510 43,000  Level Kansas City Center
05:26PM 36.8628 -97.4506 259° West 444 511 43,000  Level Kansas City Center
05:27PM 36.8378 -97.6083 259° West 451 519 43,000  Level Kansas City Center
05:28PM 36.8125 -97.7750 259° West 453 521 43,000  Level Kansas City Center
05:29PM 36.7886 -97.9275 259° West 449 517 43,000  Level Kansas City Center
05:30PM 36.7639 -98.0786 259° West 447 514 43,000  Level Kansas City Center
05:31PM 36.7403 -98.2331 259° West 450 518 43,000  Level Kansas City Center
05:33PM 36.7158 -98.3869 259° West 452 520 43,000  Level Kansas City Center
05:34PM 36.6856 -98.5731 259° West 456 525 43,000  Level Kansas City Center
05:35PM 36.6611 -98.7292 259° West 459 528 43,000  Level Kansas City Center
05:36PM 36.6361 -98.8819 259° West 456 525 43,000  Level Kansas City Center
05:37PM 36.6117 -99.0342 259° West 452 520 43,000  Level Kansas City Center
05:38PM 36.5864 -99.1828 258° West 445 512 43,000  Level Kansas City Center
05:39PM 36.5567 -99.3636 258° West 447 514 43,000  Level Kansas City Center
05:40PM 36.5311 -99.5136 258° West 447 514 43,000  Level Kansas City Center
05:41PM 36.5050 -99.6642 258° West 447 514 43,000  Level Kansas City Center
05:42PM 36.4794 -99.8122 258° West 443 510 43,000  Level Kansas City Center
05:43PM 36.4539 -99.9600 258° West 440 506 43,000  Level Kansas City Center
05:44PM 36.4272 -100.1094 258° West 442 509 43,000  Level Kansas City Center
05:45PM 36.3978 -100.2844 258° West 436 502 43,000  Level Kansas City Center
05:46PM 36.3706 -100.4317 257° West 436 502 43,000  Level Kansas City Center
05:47PM 36.3450 -100.5772 258° West 434 499 43,000  Level Kansas City Center
05:48PM 36.3197 -100.7147 257° West 433 498 43,000  Level Kansas City Center
05:49PM 36.2886 -100.8850 257° West 426 490 43,000  Level Kansas City Center
05:50PM 36.2731 -100.9750 258° West 432 497 43,000  Level Albuquerque Center
05:51PM 36.2453 -101.1294 257° West 433 498 43,000  Level Albuquerque Center
05:52PM 36.2194 -101.2642 257° West 433 498 43,000  Level Albuquerque Center
05:53PM 36.1931 -101.4097 257° West 434 499 43,000  Level Albuquerque Center
05:54PM 36.1661 -101.5564 257° West 438 504 43,000  Level Albuquerque Center
05:55PM 36.1322 -101.7289 256° West 435 501 43,000  Level Albuquerque Center
05:56PM 36.1050 -101.8736 257° West 434 499 43,000  Level Albuquerque Center
05:57PM 36.0767 -102.0186 256° West 436 502 43,000  Level Albuquerque Center
05:58PM 36.0492 -102.1628 257° West 435 501 43,000  Level Albuquerque Center
05:59PM 36.0219 -102.3072 257° West 435 501 43,000  Level Albuquerque Center
06:00PM 35.9917 -102.4514 255° West 436 502 43,000  Level Albuquerque Center
06:01PM 35.9589 -102.6242 257° West 434 499 43,000  Level Albuquerque Center
06:02PM 35.9306 -102.7686 256° West 435 501 43,000  Level Albuquerque Center
06:03PM 35.9014 -102.9106 256° West 431 496 43,000  Level Albuquerque Center
06:04PM 35.8728 -103.0547 256° West 432 497 43,000  Level Albuquerque Center
06:05PM 35.8425 -103.1997 256° West 434 499 43,000  Level Albuquerque Center
06:06PM 35.8128 -103.3464 256° West 437 503 43,000  Level Albuquerque Center
06:07PM 35.7833 -103.4917 256° West 435 501 43,000  Level Albuquerque Center
06:08PM 35.7481 -103.6614 256° West 437 503 43,000  Level Albuquerque Center
06:09PM 35.7186 -103.8031 256° West 428 493 43,000  Level Albuquerque Center
06:10PM 35.6897 -103.9439 256° West 424 488 43,000  Level Albuquerque Center
06:11PM 35.6589 -104.0867 255° West 428 493 43,000  Level Albuquerque Center
06:12PM 35.6294 -104.2286 256° West 429 494 43,000  Level Albuquerque Center
06:13PM 35.5992 -104.3697 255° West 427 491 43,000  Level Albuquerque Center
06:14PM 35.5669 -104.5111 254° West 429 494 43,000  Level Albuquerque Center
06:15PM 35.5311 -104.6753 255° West 426 490 43,000  Level Albuquerque Center
06:16PM 35.5003 -104.8153 255° West 424 488 43,000  Level Albuquerque Center
06:17PM 35.4700 -104.9561 255° West 424 488 43,000  Level Albuquerque Center
06:19PM 35.4381 -105.0961 254° West 424 488 43,000  Level Albuquerque Center
06:20PM 35.4067 -105.2350 255° West 422 486 43,000  Level Albuquerque Center
06:21PM 35.3758 -105.3733 255° West 420 483 43,000  Level Albuquerque Center
06:22PM 35.3492 -105.5125 257° West 418 481 43,000  Level Albuquerque Center
06:23PM 35.3306 -105.6786 262° West 419 482 43,000  Level Albuquerque Center
06:24PM 35.3139 -105.8214 262° West 422 486 43,000  Level Albuquerque Center
06:25PM 35.2978 -105.9639 262° West 420 483 43,000  Level Albuquerque Center
06:26PM 35.2808 -106.1072 262° West 422 486 43,000  Level Albuquerque Center
06:27PM 35.2650 -106.2411 262° West 418 481 43,000  Level Albuquerque Center
06:28PM 35.2478 -106.3831 262° West 421 484 43,000  Level Albuquerque Center
06:29PM 35.2281 -106.5406 261° West 424 488 43,000  Level Albuquerque Center
06:30PM 35.2092 -106.6989 262° West 423 487 43,000  Level Albuquerque Center
06:31PM 35.1914 -106.8347 261° West 422 486 43,000  Level Albuquerque Center
06:32PM 35.1728 -106.9717 261° West 425 489 43,000  Level Albuquerque Center
06:33PM 35.1533 -107.1294 261° West 421 484 43,000  Level Albuquerque Center
06:34PM 35.1331 -107.2831 261° West 430 495 43,000  Level Albuquerque Center
06:35PM 35.1139 -107.4211 260° West 420 483 43,000  Level Albuquerque Center
06:36PM 35.0953 -107.5625 261° West 420 483 43,000  Level Albuquerque Center
06:37PM 35.0767 -107.7014 261° West 418 481 43,000  Level Albuquerque Center
06:38PM 35.0569 -107.8486 261° West 416 479 43,000  Level Albuquerque Center
06:39PM 35.0386 -107.9828 261° West 417 480 43,000  Level Albuquerque Center
06:40PM 35.0167 -108.1414 260° West 422 486 43,000  Level Albuquerque Center
06:41PM 34.9989 -108.2747 261° West 417 480 43,000  Level Albuquerque Center
06:42PM 34.9778 -108.4300 261° West 415 478 43,000  Level Albuquerque Center
06:43PM 34.9592 -108.5631 260° West 415 478 43,000  Level Albuquerque Center
06:44PM 34.9356 -108.7283 260° West 432 497 43,000  Level Albuquerque Center
06:45PM 34.9161 -108.8683 260° West 437 503 43,000  Level Albuquerque Center
06:46PM 34.8967 -109.0058 260° West 432 497 43,000  Level Albuquerque Center
06:47PM 34.8728 -109.1642 260° West 426 490 43,000  Level Albuquerque Center
06:48PM 34.8533 -109.3000 260° West 424 488 43,000  Level Albuquerque Center
06:49PM 34.8294 -109.4575 260° West 423 487 43,000  Level Albuquerque Center
06:50PM 34.8100 -109.5911 260° West 421 484 43,000  Level Albuquerque Center
06:51PM 34.7883 -109.7275 259° West 424 488 43,000  Level Albuquerque Center
06:52PM 34.7647 -109.8853 260° West 425 489 43,000  Level Albuquerque Center
06:54PM 34.7439 -110.0233 260° West 429 494 43,000  Level Albuquerque Center
06:55PM 34.7208 -110.1886 260° West 439 505 43,000  Level Albuquerque Center
06:56PM 34.6986 -110.3250 259° West 435 501 43,000  Level Albuquerque Center
06:57PM 34.6739 -110.4847 259° West 432 497 43,000  Level Albuquerque Center
06:58PM 34.6514 -110.6225 259° West 433 498 43,000  Level Albuquerque Center
06:59PM 34.6247 -110.7697 258° West 435 501 43,000  Level Albuquerque Center
07:00PM 34.6000 -110.9150 258° West 439 505 43,000  Level Albuquerque Center
07:01PM 34.5778 -111.0583 259° West 436 502 43,000  Level Albuquerque Center
07:02PM 34.5539 -111.2003 258° West 433 498 43,000  Level Albuquerque Center
07:03PM 34.5308 -111.3422 259° West 432 497 43,000  Level Albuquerque Center
07:04PM 34.5078 -111.4806 259° West 426 490 43,000  Level Albuquerque Center
07:05PM 34.4800 -111.6442 258° West 419 482 43,000  Level Albuquerque Center
07:06PM 34.4578 -111.7789 259° West 413 475 43,000  Level Albuquerque Center
07:07PM 34.4350 -111.9119 258° West 410 472 43,000  Level Albuquerque Center
07:08PM 34.4114 -112.0464 258° West 411 473 43,000  Level Albuquerque Center
07:09PM 34.3881 -112.1806 258° West 411 473 43,000  Level Albuquerque Center
07:10PM 34.3644 -112.3150 258° West 411 473 43,000  Level Albuquerque Center
07:11PM 34.3356 -112.4764 258° West 412 474 43,000  Level Albuquerque Center
07:12PM 34.3128 -112.6108 258° West 411 473 43,000  Level Albuquerque Center
07:13PM 34.2892 -112.7461 258° West 413 475 43,000  Level Albuquerque Center
07:14PM 34.2647 -112.8789 257° West 408 470 43,000  Level Albuquerque Center
07:15PM 34.2414 -113.0114 258° West 407 468 43,000 -300 Level Albuquerque Center
07:16PM 34.2167 -113.1450 257° West 408 470 42,400 -1,320 Descending Albuquerque Center
07:17PM 34.1928 -113.2781 258° West 407 468 40,400 -2,100 Descending Albuquerque Center
07:18PM 34.1622 -113.4389 257° West 410 472 38,100 -2,100 Descending Albuquerque Center
07:19PM 34.1386 -113.5717 258° West 409 471 36,100 -1,920 Descending Albuquerque Center
07:20PM 34.1139 -113.7056 257° West 409 471 34,200 -1,020 Descending Albuquerque Center
07:21PM 34.0872 -113.8431 257° West 416 479 34,000 -120 Descending Albuquerque Center
07:22PM 34.0619 -113.9828 258° West 424 488 34,000  Level Albuquerque Center
07:23PM 34.0311 -114.1456 257° West 420 483 34,000  Level Los Angeles Center
07:25PM 34.0000 -114.3078 257° West 415 478 34,000  Level Los Angeles Center
07:26PM 33.9750 -114.4436 258° West 416 479 34,000  Level Los Angeles Center
07:27PM 33.9481 -114.5775 256° West 413 475 34,000 -720 Level Los Angeles Center
07:28PM 33.9222 -114.7147 257° West 418 481 32,500 -1,320 Descending Los Angeles Center
07:29PM 33.8992 -114.8250 256° West 425 489 31,300 -1,560 Descending Los Angeles Center
07:30PM 33.8661 -114.9969 257° West 438 504 29,300 -2,160 Descending Los Angeles Center
07:31PM 33.8317 -115.1686 256° West 440 506 26,900 -2,100 Descending Los Angeles Center
07:32PM 33.8050 -115.3028 257° West 420 483 25,000 -1,560 Descending Los Angeles Center
07:33PM 33.7847 -115.4067 257° West 406 467 23,800 -1,500 Descending Los Angeles Center
07:34PM 33.7525 -115.5622 256° West 402 463 22,000 -1,620 Descending Los Angeles Center
07:35PM 33.7261 -115.6886 256° West 395 455 20,500 -1,320 Descending Los Angeles Center
07:36PM 33.7056 -115.7886 256° West 388 447 19,300 -1,740 Descending Los Angeles Center
07:37PM 33.6700 -115.9628 256° West 386 444 17,000 -1,620 Descending Los Angeles Center
07:38PM 33.6447 -116.0836 256° West 379 436 16,000 -540 Descending Los Angeles Center
07:39PM 33.6106 -116.1967 250° West 369 425 16,000 -60 Level Los Angeles Center
07:40PM 33.5572 -116.3011 239° Southwest 369 425 15,900 -120 Descending Los Angeles Center
07:41PM 33.5072 -116.4039 240° Southwest 364 419 15,800 -1,080 Descending Los Angeles Center
07:42PM 33.4456 -116.5233 238° Southwest 359 413 13,700 -1,860 Descending Los Angeles Center
07:43PM 33.3972 -116.6175 238° Southwest 344 396 12,000 -1,680 Descending Los Angeles Center
07:44PM 33.3489 -116.7136 239° Southwest 341 392 10,300 -1,500 Descending Los Angeles Center
07:45PM 33.3058 -116.7994 239° Southwest 317 365 9,000 -1,320 Descending Los Angeles Center
07:46PM 33.2664 -116.8756 238° Southwest 283 326 7,600 -1,200 Descending Los Angeles Center
07:47PM 33.2281 -116.9503 238° Southwest 271 312 6,600 -1,380 Descending Los Angeles Center
07:48PM 33.2000 -117.0167 243° Southwest 264 304 5,300 -1,740 Descending Southern California TRACON
07:49PM 33.1667 -117.0833 239° Southwest 260 299 3,700 -1,320 Descending Southern California TRACON
07:50PM 33.1500 -117.1667 257° West 199 229 2,700 -1,080 Descending Southern California TRACON
07:51PM 33.1333 -117.2000 239° Southwest 143 165 1,600 -900 Descending Southern California TRACON
07:53PM 33.1292 -117.2717 266° West 142 163 400 -720 Descending Los Angeles Center
07:55PM 33.1167 -117.2667 253° West  Level FlightAware Approximate
08:02PM 33.1283 -117.2801 253° West  Level Estimated